createdAt,value
2018-08-12T00:00:37.637Z,68.20
2018-08-12T00:03:06.101Z,68.10
2018-08-12T00:05:34.621Z,68.10
2018-08-12T00:08:03.185Z,68.20
2018-08-12T00:10:31.686Z,68.30
2018-08-12T00:13:00.125Z,68.20
2018-08-12T00:15:28.621Z,68.20
2018-08-12T00:17:57.079Z,68.10
2018-08-12T00:20:25.511Z,68.30
2018-08-12T00:22:54.124Z,68.30
2018-08-12T00:25:23.680Z,68.30
2018-08-12T00:27:52.260Z,68.30
2018-08-12T00:30:20.960Z,68.20
2018-08-12T00:32:49.389Z,68.20
2018-08-12T00:35:19.256Z,68.40
2018-08-12T00:37:47.706Z,68.30
2018-08-12T00:40:17.140Z,68.30
2018-08-12T00:42:46.067Z,68.40
2018-08-12T00:45:16.512Z,68.50
2018-08-12T00:47:45.348Z,68.60
2018-08-12T00:50:14.562Z,68.70
2018-08-12T00:52:43.017Z,68.50
2018-08-12T00:55:13.473Z,68.70
2018-08-12T00:57:42.712Z,68.70
2018-08-12T01:00:13.604Z,68.90
2018-08-12T01:02:42.150Z,68.90
2018-08-12T01:05:12.752Z,68.80
2018-08-12T01:07:41.649Z,68.90
2018-08-12T01:10:10.900Z,69.00
2018-08-12T01:12:39.414Z,68.90
2018-08-12T01:15:11.252Z,69.10
2018-08-12T01:17:39.761Z,69.00
2018-08-12T01:20:09.394Z,69.10
2018-08-12T01:22:38.408Z,69.20
2018-08-12T01:25:07.540Z,69.10
2018-08-12T01:27:36.008Z,69.10
2018-08-12T01:30:07.415Z,69.20
2018-08-12T01:32:35.863Z,69.40
2018-08-12T01:35:05.009Z,69.50
2018-08-12T01:37:33.466Z,69.50
2018-08-12T01:40:01.944Z,69.50
2018-08-12T01:42:30.408Z,69.80
2018-08-12T01:44:58.807Z,69.80
2018-08-12T01:47:27.288Z,70.00
2018-08-12T01:49:55.930Z,70.00
2018-08-12T01:52:24.320Z,70.10
2018-08-12T01:54:52.691Z,70.20
2018-08-12T01:57:21.112Z,70.10
2018-08-12T01:59:49.534Z,70.20
2018-08-12T02:02:18.054Z,70.20
2018-08-12T02:04:46.544Z,70.30
2018-08-12T02:07:15.136Z,70.30
2018-08-12T02:09:43.607Z,70.40
2018-08-12T02:12:11.975Z,70.40
2018-08-12T02:14:40.481Z,70.60
2018-08-12T02:17:09.486Z,70.60
2018-08-12T02:19:37.919Z,70.60
2018-08-12T02:22:06.409Z,70.70
2018-08-12T02:24:34.912Z,70.70
2018-08-12T02:27:03.321Z,70.60
2018-08-12T02:29:31.756Z,70.50
2018-08-12T02:32:00.296Z,70.50
2018-08-12T02:34:29.117Z,70.50
2018-08-12T02:36:57.608Z,70.80
2018-08-12T02:39:26.102Z,70.70
2018-08-12T02:41:54.566Z,70.70
2018-08-12T02:44:23.060Z,70.60
2018-08-12T02:46:51.484Z,70.60
2018-08-12T02:49:19.864Z,70.70
2018-08-12T02:51:48.433Z,70.80
2018-08-12T02:54:16.965Z,70.80
2018-08-12T02:56:45.554Z,70.70
2018-08-12T02:59:14.057Z,70.70
2018-08-12T03:01:42.485Z,71.10
2018-08-12T03:04:10.916Z,70.60
2018-08-12T03:06:39.446Z,70.60
2018-08-12T03:09:10.157Z,70.60
2018-08-12T03:11:38.636Z,70.60
2018-08-12T03:14:08.493Z,70.70
2018-08-12T03:16:36.969Z,70.80
2018-08-12T03:19:05.448Z,70.90
2018-08-12T03:21:33.922Z,70.80
2018-08-12T03:24:02.431Z,70.90
2018-08-12T03:26:30.777Z,71.00
2018-08-12T03:28:59.156Z,70.90
2018-08-12T03:31:27.612Z,71.00
2018-08-12T03:33:56.025Z,71.10
2018-08-12T03:36:24.604Z,71.10
2018-08-12T03:38:53.036Z,71.20
2018-08-12T03:41:21.541Z,71.10
2018-08-12T03:43:50.091Z,71.10
2018-08-12T03:46:18.568Z,71.20
2018-08-12T03:48:47.139Z,71.10
2018-08-12T03:51:15.509Z,71.00
2018-08-12T03:53:44.000Z,71.00
2018-08-12T03:56:12.384Z,71.00
2018-08-12T03:58:40.818Z,71.00
2018-08-12T04:01:09.236Z,71.10
2018-08-12T04:03:37.980Z,71.10
2018-08-12T04:06:06.821Z,71.20
2018-08-12T04:08:35.156Z,71.30
2018-08-12T04:11:03.708Z,71.30
2018-08-12T04:13:32.194Z,71.20
2018-08-12T04:16:00.637Z,71.30
2018-08-12T04:18:29.422Z,71.30
2018-08-12T04:20:57.888Z,71.30
2018-08-12T04:23:26.358Z,71.40
2018-08-12T04:25:54.835Z,71.30
2018-08-12T04:28:23.262Z,71.40
2018-08-12T04:30:51.842Z,71.30
2018-08-12T04:33:20.289Z,71.40
2018-08-12T04:35:48.792Z,71.30
2018-08-12T04:38:17.315Z,71.40
2018-08-12T04:40:45.854Z,71.20
2018-08-12T04:43:15.261Z,71.20
2018-08-12T04:45:43.754Z,71.20
2018-08-12T04:48:12.221Z,71.30
2018-08-12T04:50:40.637Z,71.20
2018-08-12T04:53:09.081Z,71.30
2018-08-12T04:55:37.431Z,71.40
2018-08-12T04:58:05.833Z,71.40
2018-08-12T05:00:34.285Z,71.50
2018-08-12T05:03:02.853Z,71.50
2018-08-12T05:05:31.394Z,71.60
2018-08-12T05:07:59.824Z,71.40
2018-08-12T05:10:28.290Z,71.60
2018-08-12T05:12:56.701Z,71.60
2018-08-12T05:15:25.116Z,71.50
2018-08-12T05:17:53.566Z,71.50
2018-08-12T05:20:21.944Z,71.60
2018-08-12T05:22:50.436Z,71.60
2018-08-12T05:25:18.857Z,71.60
2018-08-12T05:27:47.297Z,71.50
2018-08-12T05:30:15.670Z,71.60
2018-08-12T05:32:44.209Z,71.60
2018-08-12T05:35:13.605Z,71.40
2018-08-12T05:37:42.536Z,71.30
2018-08-12T05:40:12.320Z,71.30
2018-08-12T05:42:40.836Z,71.30
2018-08-12T05:45:10.156Z,71.40
2018-08-12T05:47:39.325Z,71.30
2018-08-12T05:50:09.154Z,71.30
2018-08-12T05:52:37.558Z,71.30
2018-08-12T05:55:06.659Z,71.20
2018-08-12T05:57:35.093Z,71.30
2018-08-12T06:00:03.724Z,71.30
2018-08-12T06:02:32.144Z,71.50
2018-08-12T06:05:00.542Z,71.00
2018-08-12T06:07:29.091Z,71.40
2018-08-12T06:09:57.504Z,71.50
2018-08-12T06:12:25.862Z,72.00
2018-08-12T06:14:54.290Z,71.80
2018-08-12T06:17:22.856Z,71.90
2018-08-12T06:19:51.215Z,71.50
2018-08-12T06:22:19.666Z,71.40
2018-08-12T06:24:48.147Z,71.60
2018-08-12T06:27:16.656Z,71.60
2018-08-12T06:29:45.216Z,71.60
2018-08-12T06:32:13.756Z,71.60
2018-08-12T06:34:42.204Z,71.60
2018-08-12T06:37:10.902Z,71.30
2018-08-12T06:39:39.480Z,71.50
2018-08-12T06:42:08.092Z,71.50
2018-08-12T06:44:36.533Z,71.30
2018-08-12T06:47:05.041Z,71.40
2018-08-12T06:49:33.409Z,71.60
2018-08-12T06:52:01.888Z,71.70
2018-08-12T06:54:30.325Z,71.60
2018-08-12T06:56:59.140Z,71.70
2018-08-12T06:59:30.846Z,71.50
2018-08-12T07:02:00.369Z,71.70
2018-08-12T07:04:28.863Z,71.70
2018-08-12T07:06:57.361Z,71.80
2018-08-12T07:09:25.859Z,71.50
2018-08-12T07:11:54.336Z,71.50
2018-08-12T07:14:22.827Z,71.30
2018-08-12T07:16:51.346Z,70.90
2018-08-12T07:19:27.994Z,70.10
2018-08-12T07:21:56.505Z,70.40
2018-08-12T07:24:25.040Z,70.30
2018-08-12T07:26:53.528Z,68.70
2018-08-12T07:29:21.970Z,68.00
2018-08-12T07:31:50.804Z,68.30
2018-08-12T07:34:19.360Z,68.70
2018-08-12T07:36:47.865Z,68.70
2018-08-12T07:39:16.336Z,68.20
2018-08-12T07:41:45.411Z,68.10
2018-08-12T07:44:13.857Z,68.20
2018-08-12T07:46:43.110Z,68.60
2018-08-12T07:49:11.605Z,68.10
2018-08-12T07:51:39.974Z,68.30
2018-08-12T07:54:08.445Z,68.30
2018-08-12T07:56:37.064Z,68.80
2018-08-12T07:59:05.535Z,67.60
2018-08-12T08:01:33.957Z,67.80
2018-08-12T08:04:02.473Z,68.00
2018-08-12T08:06:30.971Z,67.60
2018-08-12T08:08:59.478Z,68.30
2018-08-12T08:11:27.909Z,66.40
2018-08-12T08:13:56.288Z,66.00
2018-08-12T08:16:24.844Z,65.80
2018-08-12T08:18:53.460Z,66.10
2018-08-12T08:21:22.249Z,66.00
2018-08-12T08:23:51.284Z,66.30
2018-08-12T08:26:19.761Z,65.50
2018-08-12T08:28:48.218Z,64.60
2018-08-12T08:31:16.740Z,65.00
2018-08-12T08:33:45.069Z,64.90
2018-08-12T08:36:13.495Z,63.20
2018-08-12T08:38:42.184Z,63.20
2018-08-12T08:41:10.748Z,63.10
2018-08-12T08:43:39.142Z,63.60
2018-08-12T08:46:08.003Z,63.10
2018-08-12T08:48:36.593Z,63.10
2018-08-12T08:51:05.102Z,63.20
2018-08-12T08:53:33.492Z,62.80
2018-08-12T08:56:01.964Z,63.00
2018-08-12T08:58:30.506Z,63.40
2018-08-12T09:00:59.006Z,62.90
2018-08-12T09:03:27.527Z,63.80
2018-08-12T09:05:55.994Z,63.30
2018-08-12T09:08:24.598Z,62.80
2018-08-12T09:10:53.065Z,62.90
2018-08-12T09:13:21.576Z,63.10
2018-08-12T09:15:50.024Z,62.80
2018-08-12T09:18:18.529Z,63.00
2018-08-12T09:20:47.016Z,63.30
2018-08-12T09:23:15.489Z,62.60
2018-08-12T09:25:43.978Z,62.50
2018-08-12T09:28:12.496Z,62.30
2018-08-12T09:30:40.919Z,62.60
2018-08-12T09:33:09.341Z,62.70
2018-08-12T09:35:37.836Z,62.80
2018-08-12T09:38:06.224Z,63.00
2018-08-12T09:40:34.601Z,63.60
2018-08-12T09:43:03.307Z,62.90
2018-08-12T09:45:31.860Z,62.40
2018-08-12T09:48:00.260Z,62.50
2018-08-12T09:50:28.740Z,63.00
2018-08-12T09:52:57.173Z,63.00
2018-08-12T09:55:25.634Z,63.20
2018-08-12T09:57:54.121Z,62.80
2018-08-12T10:00:25.915Z,62.50
2018-08-12T10:02:55.339Z,62.50
2018-08-12T10:05:24.009Z,62.40
2018-08-12T10:07:52.477Z,62.40
2018-08-12T10:10:20.966Z,66.40
2018-08-12T10:12:49.511Z,67.70
2018-08-12T10:15:18.245Z,65.20
2018-08-12T10:17:48.794Z,67.20
2018-08-12T10:20:17.250Z,66.80
2018-08-12T10:22:45.773Z,66.10
2018-08-12T10:25:14.288Z,63.40
2018-08-12T10:27:42.896Z,62.20
2018-08-12T10:30:12.754Z,61.60
2018-08-12T10:32:41.317Z,60.60
2018-08-12T10:35:11.355Z,60.60
2018-08-12T10:37:39.924Z,61.80
2018-08-12T10:40:10.641Z,63.10
2018-08-12T10:42:39.162Z,61.60
2018-08-12T10:45:09.714Z,61.90
2018-08-12T10:47:38.683Z,63.30
2018-08-12T10:50:11.000Z,61.00
2018-08-12T10:52:40.174Z,60.60
2018-08-12T10:55:09.674Z,64.90
2018-08-12T10:57:38.556Z,60.40
2018-08-12T11:00:16.917Z,64.90
2018-08-12T11:02:46.821Z,66.60
2018-08-12T11:05:16.720Z,65.40
2018-08-12T11:07:46.313Z,63.80
2018-08-12T11:10:14.933Z,67.50
2018-08-12T11:12:43.462Z,62.60
2018-08-12T11:15:11.972Z,62.40
2018-08-12T11:17:41.201Z,63.60
2018-08-12T11:20:10.177Z,63.00
2018-08-12T11:22:39.233Z,60.10
2018-08-12T11:25:09.152Z,67.00
2018-08-12T11:27:37.779Z,67.60
2018-08-12T11:30:09.433Z,63.80
2018-08-12T11:32:38.814Z,63.30
2018-08-12T11:35:09.405Z,63.30
2018-08-12T11:37:38.056Z,62.10
2018-08-12T11:40:09.702Z,66.00
2018-08-12T11:42:38.150Z,61.30
2018-08-12T11:45:09.473Z,63.80
2018-08-12T11:47:38.218Z,61.80
2018-08-12T11:50:08.860Z,66.80
2018-08-12T11:52:37.621Z,64.20
2018-08-12T11:55:13.348Z,63.10
2018-08-12T11:57:44.532Z,60.80
2018-08-12T12:00:18.133Z,61.80
2018-08-12T12:02:47.962Z,66.30
2018-08-12T12:05:16.815Z,60.40
2018-08-12T12:07:45.382Z,60.70
2018-08-12T12:10:16.167Z,60.50
2018-08-12T12:12:46.260Z,60.10
2018-08-12T12:15:15.417Z,61.20
2018-08-12T12:17:44.521Z,59.60
2018-08-12T12:20:13.954Z,60.10
2018-08-12T12:22:43.003Z,59.00
2018-08-12T12:25:14.349Z,59.40
2018-08-12T12:27:42.748Z,60.20
2018-08-12T12:30:17.140Z,58.90
2018-08-12T12:32:46.208Z,59.40
2018-08-12T12:35:14.789Z,59.50
2018-08-12T12:37:43.570Z,59.40
2018-08-12T12:40:14.452Z,60.20
2018-08-12T12:42:43.202Z,59.90
2018-08-12T12:45:13.659Z,59.70
2018-08-12T12:47:42.569Z,59.20
2018-08-12T12:50:13.151Z,59.40
2018-08-12T12:52:45.148Z,60.20
2018-08-12T12:55:13.570Z,59.60
2018-08-12T12:57:41.987Z,58.50
2018-08-12T13:00:13.057Z,58.70
2018-08-12T13:02:41.906Z,59.40
2018-08-12T13:05:12.469Z,59.70
2018-08-12T13:07:41.090Z,60.10
2018-08-12T13:10:11.315Z,59.40
2018-08-12T13:12:40.526Z,58.90
2018-08-12T13:15:10.690Z,59.10
2018-08-12T13:17:39.605Z,59.50
2018-08-12T13:20:13.008Z,59.90
2018-08-12T13:22:43.461Z,59.60
2018-08-12T13:25:14.698Z,59.10
2018-08-12T13:27:44.418Z,59.70
2018-08-12T13:30:13.647Z,59.40
2018-08-12T13:32:44.053Z,60.20
2018-08-12T13:35:13.074Z,58.90
2018-08-12T13:37:41.725Z,58.50
2018-08-12T13:40:11.881Z,59.20
2018-08-12T13:42:41.677Z,59.30
2018-08-12T13:45:13.298Z,58.80
2018-08-12T13:47:43.276Z,58.30
2018-08-12T13:50:15.475Z,59.00
2018-08-12T13:52:44.088Z,59.00
2018-08-12T13:55:12.661Z,59.40
2018-08-12T13:57:41.145Z,59.10
2018-08-12T14:00:11.573Z,58.50
2018-08-12T14:02:40.490Z,57.50
2018-08-12T14:05:09.222Z,58.70
2018-08-12T14:07:38.026Z,58.00
2018-08-12T14:10:07.271Z,57.90
2018-08-12T14:12:35.884Z,58.60
2018-08-12T14:15:05.240Z,58.80
2018-08-12T14:17:33.720Z,59.10
2018-08-12T14:20:02.278Z,59.10
2018-08-12T14:22:30.860Z,57.50
2018-08-12T14:24:59.306Z,57.20
2018-08-12T14:27:27.730Z,57.90
2018-08-12T14:29:56.164Z,56.50
2018-08-12T14:32:24.621Z,57.60
2018-08-12T14:34:53.070Z,57.40
2018-08-12T14:37:21.676Z,57.10
2018-08-12T14:39:50.461Z,55.70
2018-08-12T14:42:18.926Z,56.10
2018-08-12T14:44:47.617Z,55.40
2018-08-12T14:47:16.037Z,56.10
2018-08-12T14:49:44.468Z,55.40
2018-08-12T14:52:12.935Z,54.90
2018-08-12T14:54:41.391Z,55.50
2018-08-12T14:57:09.774Z,56.10
2018-08-12T14:59:38.848Z,55.70
2018-08-12T15:02:07.382Z,56.20
2018-08-12T15:04:35.873Z,55.40
2018-08-12T15:07:05.622Z,55.70
2018-08-12T15:09:34.627Z,56.00
2018-08-12T15:12:03.062Z,56.30
2018-08-12T15:14:31.509Z,56.30
2018-08-12T15:17:01.170Z,56.60
2018-08-12T15:19:29.643Z,56.10
2018-08-12T15:22:00.276Z,56.90
2018-08-12T15:24:28.794Z,56.70
2018-08-12T15:26:57.323Z,56.30
2018-08-12T15:29:25.875Z,56.30
2018-08-12T15:31:54.652Z,56.20
2018-08-12T15:34:23.180Z,55.60
2018-08-12T15:36:51.723Z,55.20
2018-08-12T15:39:20.189Z,55.20
2018-08-12T15:41:48.881Z,55.20
2018-08-12T15:44:17.862Z,55.20
2018-08-12T15:46:49.008Z,56.30
2018-08-12T15:49:17.568Z,55.10
2018-08-12T15:51:47.188Z,55.60
2018-08-12T15:57:31.784Z,56.00
2018-08-12T16:00:00.400Z,55.20
2018-08-12T16:02:29.405Z,55.00
2018-08-12T16:05:00.061Z,55.30
2018-08-12T16:07:29.148Z,55.30
2018-08-12T16:10:05.050Z,55.00
2018-08-12T16:12:36.165Z,55.10
2018-08-12T16:15:06.990Z,56.30
2018-08-12T16:17:35.468Z,56.00
2018-08-12T16:20:04.665Z,56.90
2018-08-12T16:22:33.503Z,56.80
2018-08-12T16:25:02.062Z,55.60
2018-08-12T16:27:30.560Z,54.20
2018-08-12T16:29:59.452Z,55.00
2018-08-12T16:32:28.760Z,55.40
2018-08-12T16:34:57.894Z,55.80
2018-08-12T16:37:26.257Z,55.60
2018-08-12T16:39:54.733Z,54.90
2018-08-12T16:42:23.385Z,54.30
2018-08-12T16:44:53.932Z,54.30
2018-08-12T16:47:23.233Z,54.00
2018-08-12T16:49:52.889Z,55.30
2018-08-12T16:52:21.485Z,56.60
2018-08-12T16:54:50.079Z,56.80
2018-08-12T16:57:18.509Z,54.80
2018-08-12T16:59:46.958Z,54.10
2018-08-12T17:02:15.391Z,54.60
2018-08-12T17:04:44.018Z,54.60
2018-08-12T17:07:12.447Z,55.00
2018-08-12T17:09:41.004Z,55.30
2018-08-12T17:12:10.350Z,55.70
2018-08-12T17:14:38.843Z,56.10
2018-08-12T17:17:07.636Z,56.20
2018-08-12T17:19:36.070Z,55.90
2018-08-12T17:22:04.545Z,55.90
2018-08-12T17:24:32.972Z,56.50
2018-08-12T17:27:02.211Z,57.00
2018-08-12T17:29:30.945Z,57.70
2018-08-12T17:31:59.390Z,58.30
2018-08-12T17:34:27.807Z,57.90
2018-08-12T17:36:56.275Z,58.00
2018-08-12T17:39:24.727Z,58.20
2018-08-12T17:41:53.200Z,58.10
2018-08-12T17:44:21.880Z,58.70
2018-08-12T17:46:50.264Z,58.70
2018-08-12T17:49:20.138Z,58.90
2018-08-12T17:51:51.917Z,60.20
2018-08-12T17:54:23.584Z,60.50
2018-08-12T17:56:52.658Z,60.70
2018-08-12T17:59:21.146Z,60.50
2018-08-12T18:02:01.073Z,60.40
2018-08-12T18:04:42.202Z,60.60
2018-08-12T18:07:10.738Z,61.00
2018-08-12T18:09:41.000Z,61.40
2018-08-12T18:12:11.190Z,61.70
2018-08-12T18:14:39.804Z,62.00
2018-08-12T18:17:08.255Z,62.20
2018-08-12T18:19:41.968Z,62.70
2018-08-12T18:22:11.017Z,63.00
2018-08-12T18:24:40.350Z,63.30
2018-08-12T18:27:09.597Z,63.20
2018-08-12T18:29:38.154Z,63.20
2018-08-12T18:32:06.621Z,63.20
2018-08-12T18:34:43.082Z,63.30
2018-08-12T18:37:12.130Z,63.40
2018-08-12T18:39:40.574Z,63.60
2018-08-12T18:42:09.447Z,63.70
2018-08-12T18:44:38.449Z,63.90
2018-08-12T18:47:07.280Z,63.90
2018-08-12T18:49:35.881Z,64.10
2018-08-12T18:52:09.882Z,64.20
2018-08-12T18:54:38.473Z,64.30
2018-08-12T18:57:08.216Z,64.40
2018-08-12T18:59:36.850Z,64.50
2018-08-12T19:02:05.340Z,64.70
2018-08-12T19:04:34.020Z,64.70
2018-08-12T19:07:02.681Z,64.80
2018-08-12T19:09:31.362Z,64.90
2018-08-12T19:11:59.855Z,64.90
2018-08-12T19:14:28.298Z,65.10
2018-08-12T19:16:57.000Z,65.30
2018-08-12T19:19:25.487Z,65.40
2018-08-12T19:21:53.913Z,65.50
2018-08-12T19:24:22.432Z,65.60
2018-08-12T19:26:51.040Z,65.80
2018-08-12T19:29:19.566Z,65.90
2018-08-12T19:31:48.167Z,66.00
2018-08-12T19:34:16.546Z,66.70
2018-08-12T19:36:45.102Z,66.20
2018-08-12T19:39:13.584Z,66.60
2018-08-12T19:41:42.144Z,66.80
2018-08-12T19:44:13.665Z,67.20
2018-08-12T19:46:42.456Z,67.30
2018-08-12T19:49:14.068Z,67.20
2018-08-12T19:51:42.542Z,67.20
2018-08-12T19:54:11.330Z,67.30
2018-08-12T19:56:39.823Z,67.60
2018-08-12T19:59:08.395Z,67.70
2018-08-12T20:01:36.868Z,67.90
2018-08-12T20:04:05.508Z,68.00
2018-08-12T20:06:34.098Z,68.00
2018-08-12T20:09:02.575Z,68.30
2018-08-12T20:11:31.642Z,68.40
2018-08-12T20:14:00.431Z,68.80
2018-08-12T20:16:28.860Z,68.80
2018-08-12T20:18:57.401Z,68.90
2018-08-12T20:21:25.917Z,69.30
2018-08-12T20:23:55.143Z,69.20
2018-08-12T20:26:23.670Z,69.30
2018-08-12T20:28:52.240Z,69.70
2018-08-12T20:31:20.918Z,69.90
2018-08-12T20:33:49.389Z,69.80
2018-08-12T20:36:18.080Z,70.00
2018-08-12T20:38:50.310Z,70.20
2018-08-12T20:41:18.869Z,70.10
2018-08-12T20:43:47.554Z,70.40
2018-08-12T20:46:16.097Z,70.40
2018-08-12T20:48:44.624Z,70.30
2018-08-12T20:51:13.091Z,70.40
2018-08-12T20:53:41.772Z,71.10
2018-08-12T20:56:10.315Z,70.50
2018-08-12T20:58:38.762Z,70.80
2018-08-12T21:01:07.272Z,70.90
2018-08-12T21:03:35.749Z,71.20
2018-08-12T21:06:04.239Z,71.20
2018-08-12T21:08:32.794Z,71.40
2018-08-12T21:11:01.339Z,71.40
2018-08-12T21:13:29.785Z,71.30
2018-08-12T21:15:58.478Z,71.60
2018-08-12T21:18:26.942Z,71.50
2018-08-12T21:20:55.430Z,71.60
2018-08-12T21:23:23.986Z,71.70
2018-08-12T21:25:52.455Z,71.70
2018-08-12T21:28:20.866Z,71.90
2018-08-12T21:30:49.338Z,71.70
2018-08-12T21:33:17.793Z,72.00
2018-08-12T21:35:46.297Z,71.80
2018-08-12T21:38:15.006Z,72.10
2018-08-12T21:40:43.838Z,71.90
2018-08-12T21:43:12.429Z,71.70
2018-08-12T21:45:40.901Z,71.70
2018-08-12T21:48:09.941Z,71.50
2018-08-12T21:50:38.368Z,71.60
2018-08-12T21:53:06.884Z,71.70
2018-08-12T21:55:35.288Z,71.60
2018-08-12T21:58:03.802Z,71.70
2018-08-12T22:00:32.302Z,71.70
2018-08-12T22:03:02.102Z,71.90
2018-08-12T22:05:30.602Z,71.80
2018-08-12T22:08:03.265Z,72.10
2018-08-12T22:10:31.782Z,72.10
2018-08-12T22:13:00.360Z,72.00
2018-08-12T22:15:28.856Z,72.20
2018-08-12T22:17:57.344Z,72.20
2018-08-12T22:20:25.963Z,72.10
2018-08-12T22:22:54.473Z,72.30
2018-08-12T22:25:23.156Z,72.50
2018-08-12T22:27:52.078Z,72.50
2018-08-12T22:30:20.707Z,72.40
2018-08-12T22:32:49.158Z,72.50
2018-08-12T22:35:17.713Z,72.60
2018-08-12T22:37:46.216Z,72.50
2018-08-12T22:40:14.614Z,72.50
2018-08-12T22:42:43.160Z,72.60
2018-08-12T22:45:12.194Z,72.80
2018-08-12T22:47:41.390Z,72.80
2018-08-12T22:50:09.889Z,72.90
2018-08-12T22:52:38.505Z,73.00
2018-08-12T22:55:07.914Z,72.90
2018-08-12T22:57:36.681Z,72.90
2018-08-12T23:00:08.361Z,72.90
2018-08-12T23:02:36.841Z,73.60
2018-08-12T23:05:05.772Z,73.70
2018-08-12T23:07:34.365Z,73.00
2018-08-12T23:10:02.944Z,73.20
2018-08-12T23:12:31.440Z,73.30
2018-08-12T23:15:11.217Z,73.20
2018-08-12T23:17:39.737Z,73.00
2018-08-12T23:20:08.432Z,72.90
2018-08-12T23:22:37.259Z,73.00
2018-08-12T23:25:05.865Z,72.90
2018-08-12T23:27:34.347Z,72.60
2018-08-12T23:30:04.157Z,72.60
2018-08-12T23:32:32.679Z,72.90
2018-08-12T23:35:01.160Z,73.10
2018-08-12T23:37:29.668Z,73.20
2018-08-12T23:39:58.249Z,72.90
2018-08-12T23:42:26.765Z,72.80
2018-08-12T23:44:55.622Z,72.90
2018-08-12T23:47:24.108Z,72.90
2018-08-12T23:49:52.578Z,72.90
2018-08-12T23:52:21.072Z,73.00
2018-08-12T23:54:49.536Z,73.20
2018-08-12T23:57:18.087Z,73.30
2018-08-12T23:59:47.510Z,73.20
